sensor_id;sensor_type;location;lat;lon;timestamp;pressure;altitude;pressure_sealevel;temperature;humidity
19259;BME280;9763;48.780;9.212;2023-03-21T00:01:03;98624.03;;;14.54;57.16
19259;BME280;9763;48.780;9.212;2023-03-21T00:04:27;98625.09;;;14.52;57.57
19259;BME280;9763;48.780;9.212;2023-03-21T00:08:12;98626.31;;;14.48;57.13
19259;BME280;9763;48.780;9.212;2023-03-21T00:11:35;98617.22;;;14.40;57.70
19259;BME280;9763;48.780;9.212;2023-03-21T00:15:00;98618.38;;;14.36;57.48
19259;BME280;9763;48.780;9.212;2023-03-21T00:18:27;98619.34;;;14.35;57.73
19259;BME280;9763;48.780;9.212;2023-03-21T00:21:51;98618.38;;;14.36;57.29
19259;BME280;9763;48.780;9.212;2023-03-21T00:25:32;98613.94;;;14.37;57.81
19259;BME280;9763;48.780;9.212;2023-03-21T00:28:56;98614.66;;;14.39;57.34
19259;BME280;9763;48.780;9.212;2023-03-21T00:32:21;98603.25;;;14.40;57.85
19259;BME280;9763;48.780;9.212;2023-03-21T00:35:45;98599.53;;;14.43;57.40
19259;BME280;9763;48.780;9.212;2023-03-21T00:39:30;98595.00;;;14.45;57.72
19259;BME280;9763;48.780;9.212;2023-03-21T00:42:53;98597.41;;;14.48;57.39
19259;BME280;9763;48.780;9.212;2023-03-21T00:46:17;98590.22;;;14.50;57.49
19259;BME280;9763;48.780;9.212;2023-03-21T00:49:46;98584.13;;;14.49;57.29
19259;BME280;9763;48.780;9.212;2023-03-21T00:53:09;98580.56;;;14.50;57.74
19259;BME280;9763;48.780;9.212;2023-03-21T00:56:33;98581.38;;;14.51;57.16
19259;BME280;9763;48.780;9.212;2023-03-21T00:59:57;98576.13;;;14.51;57.72
19259;BME280;9763;48.780;9.212;2023-03-21T01:03:21;98574.47;;;14.50;57.82
19259;BME280;9763;48.780;9.212;2023-03-21T01:06:49;98579.59;;;14.51;57.84
19259;BME280;9763;48.780;9.212;2023-03-21T01:10:13;98577.81;;;14.52;57.66
19259;BME280;9763;48.780;9.212;2023-03-21T01:13:38;98584.00;;;14.51;57.72
19259;BME280;9763;48.780;9.212;2023-03-21T01:17:18;98572.81;;;14.49;57.41
19259;BME280;9763;48.780;9.212;2023-03-21T01:20:43;98575.56;;;14.47;57.85
19259;BME280;9763;48.780;9.212;2023-03-21T01:24:08;98572.22;;;14.45;57.86
19259;BME280;9763;48.780;9.212;2023-03-21T01:27:32;98567.09;;;14.44;57.76
19259;BME280;9763;48.780;9.212;2023-03-21T01:30:56;98574.13;;;14.43;57.41
19259;BME280;9763;48.780;9.212;2023-03-21T01:34:20;98568.88;;;14.43;57.48
19259;BME280;9763;48.780;9.212;2023-03-21T01:37:43;98566.34;;;14.41;57.69
19259;BME280;9763;48.780;9.212;2023-03-21T01:41:18;98562.91;;;14.41;57.96
19259;BME280;9763;48.780;9.212;2023-03-21T01:44:55;98557.75;;;14.39;57.63
19259;BME280;9763;48.780;9.212;2023-03-21T01:48:28;98560.47;;;14.38;57.87
19259;BME280;9763;48.780;9.212;2023-03-21T01:51:58;98558.69;;;14.38;57.94
19259;BME280;9763;48.780;9.212;2023-03-21T01:55:35;98554.53;;;14.36;57.92
19259;BME280;9763;48.780;9.212;2023-03-21T01:59:29;98554.66;;;14.34;57.65
19259;BME280;9763;48.780;9.212;2023-03-21T02:03:13;98550.47;;;14.32;57.62
19259;BME280;9763;48.780;9.212;2023-03-21T02:07:06;98541.88;;;14.30;57.95
19259;BME280;9763;48.780;9.212;2023-03-21T02:10:36;98541.97;;;14.28;57.80
19259;BME280;9763;48.780;9.212;2023-03-21T02:14:03;98536.97;;;14.25;57.53
19259;BME280;9763;48.780;9.212;2023-03-21T02:17:48;98534.47;;;14.24;57.63
19259;BME280;9763;48.780;9.212;2023-03-21T02:26:22;98539.13;;;14.20;58.04
19259;BME280;9763;48.780;9.212;2023-03-21T02:30:37;98533.28;;;14.17;58.14
19259;BME280;9763;48.780;9.212;2023-03-21T02:34:34;98531.72;;;14.14;58.05
19259;BME280;9763;48.780;9.212;2023-03-21T02:38:09;98525.78;;;14.12;57.59
19259;BME280;9763;48.780;9.212;2023-03-21T02:41:43;98529.34;;;14.11;58.19
19259;BME280;9763;48.780;9.212;2023-03-21T02:45:13;98519.06;;;14.08;58.12
19259;BME280;9763;48.780;9.212;2023-03-21T02:48:51;98520.97;;;14.06;57.95
19259;BME280;9763;48.780;9.212;2023-03-21T02:52:19;98520.97;;;14.06;57.72
19259;BME280;9763;48.780;9.212;2023-03-21T02:56:02;98521.22;;;14.03;57.56
19259;BME280;9763;48.780;9.212;2023-03-21T02:59:37;98523.09;;;14.01;57.99
19259;BME280;9763;48.780;9.212;2023-03-21T03:03:19;98516.34;;;13.98;57.85
19259;BME280;9763;48.780;9.212;2023-03-21T03:07:17;98512.25;;;13.94;57.93
19259;BME280;9763;48.780;9.212;2023-03-21T03:10:52;98514.06;;;13.94;58.13
19259;BME280;9763;48.780;9.212;2023-03-21T03:14:35;98510.72;;;13.92;58.15
19259;BME280;9763;48.780;9.212;2023-03-21T03:18:29;98509.03;;;13.91;57.79
19259;BME280;9763;48.780;9.212;2023-03-21T03:22:02;98511.66;;;13.91;57.81
19259;BME280;9763;48.780;9.212;2023-03-21T03:25:34;98515.22;;;13.90;57.80
19259;BME280;9763;48.780;9.212;2023-03-21T03:29:10;98518.00;;;13.88;57.74
19259;BME280;9763;48.780;9.212;2023-03-21T03:32:40;98519.78;;;13.88;57.75
19259;BME280;9763;48.780;9.212;2023-03-21T03:36:10;98513.81;;;13.86;58.23
19259;BME280;9763;48.780;9.212;2023-03-21T03:39:59;98505.94;;;13.86;58.02
19259;BME280;9763;48.780;9.212;2023-03-21T03:43:31;98506.06;;;13.84;57.76
19259;BME280;9763;48.780;9.212;2023-03-21T03:46:58;98493.88;;;13.83;58.25
19259;BME280;9763;48.780;9.212;2023-03-21T03:50:27;98495.69;;;13.83;57.74
19259;BME280;9763;48.780;9.212;2023-03-21T03:53:56;98491.38;;;13.82;57.73
19259;BME280;9763;48.780;9.212;2023-03-21T03:57:25;98487.19;;;13.79;58.17
19259;BME280;9763;48.780;9.212;2023-03-21T04:00:51;98484.84;;;13.76;58.13
19259;BME280;9763;48.780;9.212;2023-03-21T04:04:15;98491.03;;;13.75;58.07
19259;BME280;9763;48.780;9.212;2023-03-21T04:07:41;98491.16;;;13.74;58.00
19259;BME280;9763;48.780;9.212;2023-03-21T04:11:05;98487.69;;;13.73;58.13
19259;BME280;9763;48.780;9.212;2023-03-21T04:14:32;98497.44;;;13.71;58.04
19259;BME280;9763;48.780;9.212;2023-03-21T04:18:07;98499.34;;;13.69;58.26
19259;BME280;9763;48.780;9.212;2023-03-21T04:21:31;98499.34;;;13.69;58.29
19259;BME280;9763;48.780;9.212;2023-03-21T04:24:57;98487.19;;;13.68;58.42
19259;BME280;9763;48.780;9.212;2023-03-21T04:28:23;98491.72;;;13.66;58.26
19259;BME280;9763;48.780;9.212;2023-03-21T04:31:56;98489.47;;;13.61;58.48
19259;BME280;9763;48.780;9.212;2023-03-21T04:35:22;98493.47;;;13.54;58.39
19259;BME280;9763;48.780;9.212;2023-03-21T04:38:46;98494.06;;;13.47;58.70
19259;BME280;9763;48.780;9.212;2023-03-21T04:42:12;98492.97;;;13.38;58.04
19259;BME280;9763;48.780;9.212;2023-03-21T04:45:37;98490.34;;;13.27;58.14
19259;BME280;9763;48.780;9.212;2023-03-21T04:49:01;98484.28;;;13.14;58.23
19259;BME280;9763;48.780;9.212;2023-03-21T04:52:25;98490.19;;;13.05;58.31
19259;BME280;9763;48.780;9.212;2023-03-21T04:55:49;98496.94;;;12.96;58.44
19259;BME280;9763;48.780;9.212;2023-03-21T04:59:18;98485.84;;;12.92;58.14
19259;BME280;9763;48.780;9.212;2023-03-21T05:02:43;98485.25;;;12.89;58.46
19259;BME280;9763;48.780;9.212;2023-03-21T05:06:08;98481.81;;;12.88;58.50
19259;BME280;9763;48.780;9.212;2023-03-21T05:09:32;98484.44;;;12.88;58.36
19259;BME280;9763;48.780;9.212;2023-03-21T05:12:57;98486.94;;;12.90;58.32
19259;BME280;9763;48.780;9.212;2023-03-21T05:16:24;98485.16;;;12.90;58.67
19259;BME280;9763;48.780;9.212;2023-03-21T05:19:53;98489.31;;;12.93;58.36
19259;BME280;9763;48.780;9.212;2023-03-21T05:23:18;98492.06;;;12.91;58.29
19259;BME280;9763;48.780;9.212;2023-03-21T05:26:43;98486.94;;;12.90;58.50
19259;BME280;9763;48.780;9.212;2023-03-21T05:30:16;98494.69;;;12.91;58.76
19259;BME280;9763;48.780;9.212;2023-03-21T05:33:45;98495.53;;;12.92;58.18
19259;BME280;9763;48.780;9.212;2023-03-21T05:37:13;98495.53;;;12.92;58.27
19259;BME280;9763;48.780;9.212;2023-03-21T05:40:46;98502.53;;;12.91;58.33
19259;BME280;9763;48.780;9.212;2023-03-21T05:44:10;98501.47;;;12.94;58.57
19259;BME280;9763;48.780;9.212;2023-03-21T05:47:35;98495.16;;;12.96;58.48
19259;BME280;9763;48.780;9.212;2023-03-21T05:51:01;98495.69;;;13.02;58.29
19259;BME280;9763;48.780;9.212;2023-03-21T05:54:26;98485.56;;;13.08;58.24
19259;BME280;9763;48.780;9.212;2023-03-21T05:57:50;98493.94;;;13.13;58.34
19259;BME280;9763;48.780;9.212;2023-03-21T06:01:19;98505.03;;;13.17;58.75
19259;BME280;9763;48.780;9.212;2023-03-21T06:05:00;98497.56;;;13.23;58.62
19259;BME280;9763;48.780;9.212;2023-03-21T06:08:26;98497.81;;;13.31;58.17
19259;BME280;9763;48.780;9.212;2023-03-21T06:11:51;98504.19;;;13.40;58.71
19259;BME280;9763;48.780;9.212;2023-03-21T06:15:17;98499.53;;;13.44;58.71
19259;BME280;9763;48.780;9.212;2023-03-21T06:18:52;98504.44;;;13.48;58.20
19259;BME280;9763;48.780;9.212;2023-03-21T06:22:35;98502.53;;;13.50;58.18
19259;BME280;9763;48.780;9.212;2023-03-21T06:26:00;98507.31;;;13.56;58.66
19259;BME280;9763;48.780;9.212;2023-03-21T06:29:25;98505.91;;;13.63;58.29
19259;BME280;9763;48.780;9.212;2023-03-21T06:32:48;98505.44;;;13.69;58.40
19259;BME280;9763;48.780;9.212;2023-03-21T06:36:13;98497.81;;;13.78;58.80
19259;BME280;9763;48.780;9.212;2023-03-21T06:39:37;98497.13;;;13.87;58.25
19259;BME280;9763;48.780;9.212;2023-03-21T06:43:03;98493.28;;;13.91;58.67
19259;BME280;9763;48.780;9.212;2023-03-21T06:46:28;98500.94;;;13.94;58.65
19259;BME280;9763;48.780;9.212;2023-03-21T06:49:52;98493.78;;;13.96;58.26
19259;BME280;9763;48.780;9.212;2023-03-21T06:53:16;98493.44;;;14.00;58.69
19259;BME280;9763;48.780;9.212;2023-03-21T06:57:02;98498.06;;;14.08;58.46
19259;BME280;9763;48.780;9.212;2023-03-21T07:00:30;98497.13;;;14.20;58.26
19259;BME280;9763;48.780;9.212;2023-03-21T07:03:55;98489.94;;;14.33;58.19
19259;BME280;9763;48.780;9.212;2023-03-21T07:07:24;98495.66;;;14.50;58.25
19259;BME280;9763;48.780;9.212;2023-03-21T07:10:48;98493.50;;;14.66;58.31
19259;BME280;9763;48.780;9.212;2023-03-21T07:14:12;98488.81;;;14.81;57.95
19259;BME280;9763;48.780;9.212;2023-03-21T07:17:38;98494.34;;;14.98;58.52
19259;BME280;9763;48.780;9.212;2023-03-21T07:21:01;98484.25;;;15.14;58.35
19259;BME280;9763;48.780;9.212;2023-03-21T07:24:25;98482.03;;;15.31;58.47
19259;BME280;9763;48.780;9.212;2023-03-21T07:27:50;98477.84;;;15.49;57.83
19259;BME280;9763;48.780;9.212;2023-03-21T07:31:15;98479.34;;;15.63;58.03
19259;BME280;9763;48.780;9.212;2023-03-21T07:34:44;98478.78;;;15.80;57.85
19259;BME280;9763;48.780;9.212;2023-03-21T07:38:08;98481.22;;;16.02;57.92
19259;BME280;9763;48.780;9.212;2023-03-21T07:41:31;98483.97;;;16.31;57.56
19259;BME280;9763;48.780;9.212;2023-03-21T07:45:08;98479.28;;;17.23;59.07
19259;BME280;9763;48.780;9.212;2023-03-21T07:48:32;98486.06;;;18.93;59.38
19259;BME280;9763;48.780;9.212;2023-03-21T07:51:58;98478.81;;;20.08;56.94
19259;BME280;9763;48.780;9.212;2023-03-21T07:55:26;98475.94;;;20.69;56.76
19259;BME280;9763;48.780;9.212;2023-03-21T07:58:50;98474.88;;;21.77;56.10
19259;BME280;9763;48.780;9.212;2023-03-21T08:02:15;98469.88;;;23.30;56.01
19259;BME280;9763;48.780;9.212;2023-03-21T08:05:40;98471.91;;;24.69;54.50
19259;BME280;9763;48.780;9.212;2023-03-21T08:09:07;98471.81;;;25.34;52.80
19259;BME280;9763;48.780;9.212;2023-03-21T08:12:30;98466.22;;;25.78;52.40
19259;BME280;9763;48.780;9.212;2023-03-21T08:15:54;98455.97;;;26.58;51.93
19259;BME280;9763;48.780;9.212;2023-03-21T08:19:18;98462.66;;;26.88;51.01
19259;BME280;9763;48.780;9.212;2023-03-21T08:22:43;98440.94;;;27.57;50.64
19259;BME280;9763;48.780;9.212;2023-03-21T08:26:09;98450.06;;;28.47;49.64
19259;BME280;9763;48.780;9.212;2023-03-21T08:29:33;98446.72;;;29.27;48.12
19259;BME280;9763;48.780;9.212;2023-03-21T08:33:02;98446.22;;;29.68;47.34
19259;BME280;9763;48.780;9.212;2023-03-21T08:36:27;98442.09;;;29.66;46.34
19259;BME280;9763;48.780;9.212;2023-03-21T08:39:52;98429.66;;;30.08;46.33
19259;BME280;9763;48.780;9.212;2023-03-21T08:43:17;98437.25;;;30.84;45.13
19259;BME280;9763;48.780;9.212;2023-03-21T08:46:41;98416.00;;;31.71;44.30
19259;BME280;9763;48.780;9.212;2023-03-21T08:50:06;98409.63;;;32.52;42.96
19259;BME280;9763;48.780;9.212;2023-03-21T08:53:31;98410.63;;;33.03;42.09
19259;BME280;9763;48.780;9.212;2023-03-21T08:56:55;98410.91;;;33.68;41.00
19259;BME280;9763;48.780;9.212;2023-03-21T09:00:21;98407.19;;;34.29;40.11
19259;BME280;9763;48.780;9.212;2023-03-21T09:03:44;98405.94;;;34.20;39.63
19259;BME280;9763;48.780;9.212;2023-03-21T09:07:09;98408.50;;;34.27;39.27
19259;BME280;9763;48.780;9.212;2023-03-21T09:10:34;98408.22;;;34.50;38.50
19259;BME280;9763;48.780;9.212;2023-03-21T09:13:57;98405.31;;;34.57;37.82
19259;BME280;9763;48.780;9.212;2023-03-21T09:17:22;98393.44;;;34.19;37.32
19259;BME280;9763;48.780;9.212;2023-03-21T09:20:46;98407.09;;;34.24;37.24
19259;BME280;9763;48.780;9.212;2023-03-21T09:24:12;98410.69;;;34.52;36.49
19259;BME280;9763;48.780;9.212;2023-03-21T09:27:36;98408.16;;;34.94;35.81
19259;BME280;9763;48.780;9.212;2023-03-21T09:31:00;98409.72;;;35.17;35.25
19259;BME280;9763;48.780;9.212;2023-03-21T09:34:26;98408.06;;;35.11;34.48
19259;BME280;9763;48.780;9.212;2023-03-21T09:37:50;98405.47;;;34.72;34.38
19259;BME280;9763;48.780;9.212;2023-03-21T09:41:24;98403.34;;;33.87;33.87
19259;BME280;9763;48.780;9.212;2023-03-21T09:44:59;98396.78;;;33.49;34.64
19259;BME280;9763;48.780;9.212;2023-03-21T09:48:34;98395.94;;;33.82;34.40
19259;BME280;9763;48.780;9.212;2023-03-21T09:52:21;98400.59;;;34.04;33.73
19259;BME280;9763;48.780;9.212;2023-03-21T09:55:47;98386.88;;;34.32;33.32
19259;BME280;9763;48.780;9.212;2023-03-21T09:59:20;98396.34;;;34.78;32.06
19259;BME280;9763;48.780;9.212;2023-03-21T10:02:46;98382.69;;;34.95;32.00
19259;BME280;9763;48.780;9.212;2023-03-21T10:06:14;98381.91;;;34.99;31.67
19259;BME280;9763;48.780;9.212;2023-03-21T10:09:40;98371.97;;;34.83;31.53
19259;BME280;9763;48.780;9.212;2023-03-21T10:13:06;98383.13;;;34.60;30.77
19259;BME280;9763;48.780;9.212;2023-03-21T10:16:40;98340.28;;;33.91;30.94
19259;BME280;9763;48.780;9.212;2023-03-21T10:20:21;98350.78;;;33.16;31.47
19259;BME280;9763;48.780;9.212;2023-03-21T10:23:46;98355.75;;;32.90;31.98
19259;BME280;9763;48.780;9.212;2023-03-21T10:27:14;98356.28;;;33.04;31.83
19259;BME280;9763;48.780;9.212;2023-03-21T10:30:42;98336.59;;;33.25;31.62
19259;BME280;9763;48.780;9.212;2023-03-21T10:34:15;98339.97;;;33.71;30.60
19259;BME280;9763;48.780;9.212;2023-03-21T10:37:40;98326.03;;;34.01;30.44
19259;BME280;9763;48.780;9.212;2023-03-21T10:41:04;98343.56;;;34.15;30.17
19259;BME280;9763;48.780;9.212;2023-03-21T10:44:31;98339.50;;;33.96;30.15
19259;BME280;9763;48.780;9.212;2023-03-21T10:47:56;98333.97;;;33.86;29.78
19259;BME280;9763;48.780;9.212;2023-03-21T10:51:21;98335.84;;;33.47;29.73
19259;BME280;9763;48.780;9.212;2023-03-21T10:54:48;98340.72;;;33.28;30.21
19259;BME280;9763;48.780;9.212;2023-03-21T10:58:15;98335.03;;;33.13;29.95
19259;BME280;9763;48.780;9.212;2023-03-21T11:01:46;98328.34;;;32.70;30.34
19259;BME280;9763;48.780;9.212;2023-03-21T11:05:19;98331.78;;;31.97;29.31
19259;BME280;9763;48.780;9.212;2023-03-21T11:08:48;98337.25;;;31.27;29.84
19259;BME280;9763;48.780;9.212;2023-03-21T11:12:15;98344.56;;;30.55;29.99
19259;BME280;9763;48.780;9.212;2023-03-21T11:15:51;98331.66;;;29.72;30.99
19259;BME280;9763;48.780;9.212;2023-03-21T11:19:20;98323.75;;;29.16;31.25
19259;BME280;9763;48.780;9.212;2023-03-21T11:22:49;98326.91;;;28.75;30.83
19259;BME280;9763;48.780;9.212;2023-03-21T11:26:19;98329.06;;;28.28;31.79
19259;BME280;9763;48.780;9.212;2023-03-21T11:29:48;98321.56;;;27.99;31.81
19259;BME280;9763;48.780;9.212;2023-03-21T11:33:12;98322.31;;;27.48;31.43
19259;BME280;9763;48.780;9.212;2023-03-21T11:36:38;98318.84;;;27.08;31.85
19259;BME280;9763;48.780;9.212;2023-03-21T11:40:18;98314.50;;;26.74;32.45
19259;BME280;9763;48.780;9.212;2023-03-21T11:43:50;98311.34;;;26.31;32.16
19259;BME280;9763;48.780;9.212;2023-03-21T11:47:15;98319.16;;;25.85;32.68
19259;BME280;9763;48.780;9.212;2023-03-21T11:50:41;98320.78;;;25.45;32.55
19259;BME280;9763;48.780;9.212;2023-03-21T11:54:14;98302.47;;;25.14;33.27
19259;BME280;9763;48.780;9.212;2023-03-21T11:57:49;98292.97;;;24.84;33.86
19259;BME280;9763;48.780;9.212;2023-03-21T12:01:30;98290.84;;;24.51;33.14
19259;BME280;9763;48.780;9.212;2023-03-21T12:05:02;98298.91;;;24.36;34.00
19259;BME280;9763;48.780;9.212;2023-03-21T12:08:36;98288.56;;;24.12;34.01
19259;BME280;9763;48.780;9.212;2023-03-21T12:12:17;98277.56;;;24.00;33.85
19259;BME280;9763;48.780;9.212;2023-03-21T12:16:01;98281.00;;;23.80;33.15
19259;BME280;9763;48.780;9.212;2023-03-21T12:19:55;98272.94;;;23.29;33.05
19259;BME280;9763;48.780;9.212;2023-03-21T12:23:45;98276.84;;;22.89;34.40
19259;BME280;9763;48.780;9.212;2023-03-21T12:27:22;98277.75;;;22.81;34.94
19259;BME280;9763;48.780;9.212;2023-03-21T12:30:53;98269.84;;;22.88;34.78
19259;BME280;9763;48.780;9.212;2023-03-21T12:34:28;98267.50;;;22.93;35.06
19259;BME280;9763;48.780;9.212;2023-03-21T12:38:06;98262.06;;;23.01;35.35
19259;BME280;9763;48.780;9.212;2023-03-21T12:41:40;98259.22;;;23.03;34.92
19259;BME280;9763;48.780;9.212;2023-03-21T12:45:13;98258.59;;;23.01;35.58
19259;BME280;9763;48.780;9.212;2023-03-21T12:48:42;98253.34;;;23.07;35.27
19259;BME280;9763;48.780;9.212;2023-03-21T12:52:12;98257.22;;;23.05;35.01
19259;BME280;9763;48.780;9.212;2023-03-21T12:55:38;98249.22;;;23.05;35.67
19259;BME280;9763;48.780;9.212;2023-03-21T12:59:11;98243.63;;;23.14;35.31
19259;BME280;9763;48.780;9.212;2023-03-21T13:02:42;98238.13;;;23.30;35.25
19259;BME280;9763;48.780;9.212;2023-03-21T13:06:09;98239.06;;;23.52;35.07
19259;BME280;9763;48.780;9.212;2023-03-21T13:09:35;98242.59;;;23.74;35.36
19259;BME280;9763;48.780;9.212;2023-03-21T13:13:08;98234.25;;;23.98;35.21
19259;BME280;9763;48.780;9.212;2023-03-21T13:16:38;98235.03;;;24.14;34.96
19259;BME280;9763;48.780;9.212;2023-03-21T13:20:11;98231.25;;;24.23;34.91
19259;BME280;9763;48.780;9.212;2023-03-21T13:23:45;98224.94;;;24.30;34.91
19259;BME280;9763;48.780;9.212;2023-03-21T13:27:20;98225.59;;;24.32;34.86
19259;BME280;9763;48.780;9.212;2023-03-21T13:30:49;98225.31;;;24.27;35.50
19259;BME280;9763;48.780;9.212;2023-03-21T13:34:14;98222.75;;;24.19;35.25
19259;BME280;9763;48.780;9.212;2023-03-21T13:37:42;98217.38;;;24.13;35.05
19259;BME280;9763;48.780;9.212;2023-03-21T13:41:08;98213.88;;;24.12;35.71
19259;BME280;9763;48.780;9.212;2023-03-21T13:44:42;98211.22;;;24.12;35.28
19259;BME280;9763;48.780;9.212;2023-03-21T13:48:27;98203.78;;;24.08;35.28
19259;BME280;9763;48.780;9.212;2023-03-21T13:51:53;98197.56;;;24.00;35.62
19259;BME280;9763;48.780;9.212;2023-03-21T13:55:19;98188.41;;;23.88;35.40
19259;BME280;9763;48.780;9.212;2023-03-21T13:58:57;98187.25;;;23.76;35.46
19259;BME280;9763;48.780;9.212;2023-03-21T14:02:27;98193.50;;;23.68;35.67
19259;BME280;9763;48.780;9.212;2023-03-21T14:05:52;98198.59;;;23.63;35.68
19259;BME280;9763;48.780;9.212;2023-03-21T14:09:24;98193.13;;;23.50;35.91
19259;BME280;9763;48.780;9.212;2023-03-21T14:12:51;98188.59;;;23.36;35.85
19259;BME280;9763;48.780;9.212;2023-03-21T14:16:16;98177.41;;;23.26;36.25
19259;BME280;9763;48.780;9.212;2023-03-21T14:19:41;98179.16;;;23.19;35.95
19259;BME280;9763;48.780;9.212;2023-03-21T14:23:06;98181.72;;;23.12;36.63
19259;BME280;9763;48.780;9.212;2023-03-21T14:26:32;98181.00;;;23.04;36.66
19259;BME280;9763;48.780;9.212;2023-03-21T14:30:00;98172.56;;;23.00;36.50
19259;BME280;9763;48.780;9.212;2023-03-21T14:33:27;98168.00;;;22.94;36.64
19259;BME280;9763;48.780;9.212;2023-03-21T14:36:51;98172.00;;;22.90;36.79
19259;BME280;9763;48.780;9.212;2023-03-21T14:40:23;98173.38;;;22.86;36.70
19259;BME280;9763;48.780;9.212;2023-03-21T14:44:01;98165.75;;;22.83;36.97
19259;BME280;9763;48.780;9.212;2023-03-21T14:47:28;98161.25;;;22.83;36.83
19259;BME280;9763;48.780;9.212;2023-03-21T14:50:55;98157.50;;;22.78;36.63
19259;BME280;9763;48.780;9.212;2023-03-21T14:54:20;98163.00;;;22.76;37.05
19259;BME280;9763;48.780;9.212;2023-03-21T14:57:44;98159.59;;;22.68;36.68
19259;BME280;9763;48.780;9.212;2023-03-21T15:01:15;98158.00;;;22.58;37.11
19259;BME280;9763;48.780;9.212;2023-03-21T15:04:41;98170.56;;;22.50;36.68
19259;BME280;9763;48.780;9.212;2023-03-21T15:08:11;98159.66;;;22.45;36.83
19259;BME280;9763;48.780;9.212;2023-03-21T15:11:37;98155.69;;;22.41;36.68
19259;BME280;9763;48.780;9.212;2023-03-21T15:15:02;98157.06;;;22.37;36.77
19259;BME280;9763;48.780;9.212;2023-03-21T15:18:29;98152.91;;;22.34;37.07
19259;BME280;9763;48.780;9.212;2023-03-21T15:22:03;98155.13;;;22.31;36.98
19259;BME280;9763;48.780;9.212;2023-03-21T15:25:32;98158.50;;;22.24;37.52
19259;BME280;9763;48.780;9.212;2023-03-21T15:28:58;98155.00;;;22.24;37.27
19259;BME280;9763;48.780;9.212;2023-03-21T15:32:26;98164.63;;;22.25;37.22
19259;BME280;9763;48.780;9.212;2023-03-21T15:35:52;98170.69;;;22.19;37.41
19259;BME280;9763;48.780;9.212;2023-03-21T15:39:19;98167.06;;;22.12;37.80
19259;BME280;9763;48.780;9.212;2023-03-21T15:42:45;98166.13;;;22.05;37.78
19259;BME280;9763;48.780;9.212;2023-03-21T15:46:13;98159.69;;;21.99;37.29
19259;BME280;9763;48.780;9.212;2023-03-21T15:49:39;98171.38;;;21.90;37.28
19259;BME280;9763;48.780;9.212;2023-03-21T15:53:06;98171.78;;;21.79;37.55
19259;BME280;9763;48.780;9.212;2023-03-21T15:56:36;98176.34;;;21.62;38.04
19259;BME280;9763;48.780;9.212;2023-03-21T16:00:20;98177.81;;;21.42;38.05
19259;BME280;9763;48.780;9.212;2023-03-21T16:03:45;98173.75;;;21.23;38.49
19259;BME280;9763;48.780;9.212;2023-03-21T16:07:13;98172.28;;;21.04;38.24
19259;BME280;9763;48.780;9.212;2023-03-21T16:10:38;98175.19;;;20.87;38.85
19259;BME280;9763;48.780;9.212;2023-03-21T16:14:04;98181.34;;;20.71;38.98
19259;BME280;9763;48.780;9.212;2023-03-21T16:17:31;98181.19;;;20.56;38.54
19259;BME280;9763;48.780;9.212;2023-03-21T16:20:58;98177.06;;;20.45;38.73
19259;BME280;9763;48.780;9.212;2023-03-21T16:24:22;98180.19;;;20.33;39.24
19259;BME280;9763;48.780;9.212;2023-03-21T16:27:47;98176.06;;;20.22;39.36
19259;BME280;9763;48.780;9.212;2023-03-21T16:31:15;98176.25;;;20.12;38.81
19259;BME280;9763;48.780;9.212;2023-03-21T16:34:39;98177.88;;;19.97;39.53
19259;BME280;9763;48.780;9.212;2023-03-21T16:38:04;98179.34;;;19.84;39.34
19259;BME280;9763;48.780;9.212;2023-03-21T16:41:28;98182.31;;;19.72;39.91
19259;BME280;9763;48.780;9.212;2023-03-21T16:44:52;98185.94;;;19.63;39.88
19259;BME280;9763;48.780;9.212;2023-03-21T16:48:17;98182.28;;;19.56;39.51
19259;BME280;9763;48.780;9.212;2023-03-21T16:51:41;98176.13;;;19.48;40.25
19259;BME280;9763;48.780;9.212;2023-03-21T16:55:05;98181.91;;;19.43;39.95
19259;BME280;9763;48.780;9.212;2023-03-21T16:58:30;98185.84;;;19.39;39.98
19259;BME280;9763;48.780;9.212;2023-03-21T17:01:53;98186.00;;;19.37;40.37
19259;BME280;9763;48.780;9.212;2023-03-21T17:05:19;98187.31;;;19.33;40.18
19259;BME280;9763;48.780;9.212;2023-03-21T17:08:43;98193.78;;;19.31;40.07
19259;BME280;9763;48.780;9.212;2023-03-21T17:12:09;98195.91;;;19.27;40.08
19259;BME280;9763;48.780;9.212;2023-03-21T17:15:35;98197.88;;;19.25;40.59
19259;BME280;9763;48.780;9.212;2023-03-21T17:18:59;98191.22;;;19.21;40.18
19259;BME280;9763;48.780;9.212;2023-03-21T17:22:24;98192.41;;;19.19;40.28
19259;BME280;9763;48.780;9.212;2023-03-21T17:25:48;98202.47;;;19.15;40.64
19259;BME280;9763;48.780;9.212;2023-03-21T17:29:13;98195.00;;;19.11;40.74
19259;BME280;9763;48.780;9.212;2023-03-21T17:32:37;98193.00;;;19.04;40.26
19259;BME280;9763;48.780;9.212;2023-03-21T17:36:01;98188.66;;;18.95;41.13
19259;BME280;9763;48.780;9.212;2023-03-21T17:39:26;98195.72;;;18.87;41.04
19259;BME280;9763;48.780;9.212;2023-03-21T17:42:50;98193.84;;;18.79;40.86
19259;BME280;9763;48.780;9.212;2023-03-21T17:46:18;98199.09;;;18.71;41.42
19259;BME280;9763;48.780;9.212;2023-03-21T17:49:42;98205.84;;;18.65;41.35
19259;BME280;9763;48.780;9.212;2023-03-21T17:53:07;98206.28;;;18.61;41.51
19259;BME280;9763;48.780;9.212;2023-03-21T17:56:34;98207.72;;;18.55;41.35
19259;BME280;9763;48.780;9.212;2023-03-21T17:59:59;98200.41;;;18.49;41.70
19259;BME280;9763;48.780;9.212;2023-03-21T18:03:33;98200.03;;;18.44;41.81
19259;BME280;9763;48.780;9.212;2023-03-21T18:06:57;98204.94;;;18.39;41.34
19259;BME280;9763;48.780;9.212;2023-03-21T18:10:25;98202.94;;;18.33;41.95
19259;BME280;9763;48.780;9.212;2023-03-21T18:13:51;98202.56;;;18.28;41.70
19259;BME280;9763;48.780;9.212;2023-03-21T18:17:36;98201.19;;;18.24;41.93
19259;BME280;9763;48.780;9.212;2023-03-21T18:20:59;98205.97;;;18.20;41.95
19259;BME280;9763;48.780;9.212;2023-03-21T18:24:24;98209.88;;;18.16;42.15
19259;BME280;9763;48.780;9.212;2023-03-21T18:27:48;98217.28;;;18.13;42.19
19259;BME280;9763;48.780;9.212;2023-03-21T18:31:33;98215.78;;;18.10;42.01
19259;BME280;9763;48.780;9.212;2023-03-21T18:34:58;98220.25;;;18.10;42.30
19259;BME280;9763;48.780;9.212;2023-03-21T18:38:22;98207.47;;;18.05;42.08
19259;BME280;9763;48.780;9.212;2023-03-21T18:41:46;98210.41;;;18.02;42.63
19259;BME280;9763;48.780;9.212;2023-03-21T18:45:11;98199.16;;;18.00;42.69